Latest Weather Observations for Cape Willoughby

IDS60801

Issued at 5:35 pm CST Saturday 30 August 2014 (issued every 30 minutes, with the page automatically refreshed every 10 minutes)

About weather observations | Map of weather stations | Latest weather observations for SA | Other Formats
Station Details ID: 022803 Name: CAPE WILLOUGHBY Lat: -35.84 Lon: 138.13 Height: 55.0 m
Data from the previous 72 hours. | See also: Recent months at Cape Willoughby
Date/Time
CST
Temp
°C
App
Temp
°C
Dew
Point
Rel
Hum
%
Delta-T
°C
Wind Press
QNH
hPa
Press
MSL
hPa
Rain
since 9 am
mm
Dir
 
Spd
km/h
Gust
km/h
Spd
kts
Gust
kts
30/05:30pm 16.9 12.2 7.8 55 4.6 NNW 22 24 12 13 1018.2 1018.3 0.0
30/05:00pm 17.4 11.5 7.5 52 5.0 NNW 28 33 15 18 1018.3 1018.4 0.0
30/04:56pm 17.5 11.6 7.5 52 5.0 NNW 28 33 15 18 1018.3 1018.4 0.0
30/04:30pm 17.7 16.1 8.6 55 4.7 N 7 15 4 8 1018.5 1018.6 0.0
30/04:00pm 18.1 14.9 10.0 59 4.3 N 17 22 9 12 1018.4 1018.5 0.0
30/03:30pm 18.4 14.1 9.2 55 4.8 NNW 22 28 12 15 1018.5 1018.6 0.0
30/03:00pm 19.1 14.4 9.3 53 5.2 NNW 24 30 13 16 1018.8 1018.9 0.0
30/02:30pm 19.3 15.7 10.0 55 5.0 N 19 22 10 12 1019.2 1019.3 0.0
30/02:00pm 19.4 15.9 10.1 55 5.0 N 19 24 10 13 1019.7 1019.8 0.0
30/01:30pm 19.4 15.2 9.6 53 5.2 N 22 26 12 14 1020.0 1020.0 0.0
30/01:00pm 19.7 14.3 8.1 47 6.0 NNW 26 30 14 16 1020.5 1020.5 0.0
30/12:30pm 20.5 16.4 8.8 47 6.2 NNW 20 22 11 12 1021.1 1021.1 0.0
30/12:00pm 20.2 15.6 8.2 46 6.2 NNW 22 26 12 14 1021.4 1021.4 0.0
30/11:30am 20.0 14.9 9.3 50 5.7 NNW 26 30 14 16 1021.9 1021.9 0.0
30/11:00am 19.5 13.8 8.5 49 5.7 NNW 28 33 15 18 1022.0 1022.0 0.0
30/10:30am 19.1 14.9 9.6 54 5.0 N 22 28 12 15 1022.4 1022.4 0.0
30/10:00am 18.5 13.9 8.2 51 5.3 N 22 28 12 15 1022.8 1022.8 0.0
30/09:30am 18.2 11.6 7.6 50 5.4 NNW 32 39 17 21 1022.7 1022.7 0.0
30/09:00am 17.4 11.5 7.7 53 4.9 NNW 28 39 15 21 1022.8 1022.8 0.0
30/08:30am 16.8 10.9 7.4 54 4.7 NNW 28 37 15 20 1022.7 1022.7 0.0
30/08:00am 16.2 10.7 7.7 57 4.3 NNW 26 35 14 19 1022.6 1022.6 0.0
30/07:30am 15.5 11.9 8.3 62 3.6 NNW 17 20 9 11 1022.7 1022.7 0.0
30/07:00am 14.9 12.2 7.2 60 3.8 NNW 11 17 6 9 1022.6 1022.6 0.0
30/06:30am 14.4 11.4 7.7 64 3.3 NNW 13 17 7 9 1022.5 1022.5 0.0
30/06:00am 14.5 13.0 9.3 71 2.7 N 7 9 4 5 1022.5 1022.5 0.0
30/05:30am 14.3 12.7 8.9 70 2.7 N 7 7 4 4 1022.5 1022.5 0.0
30/05:00am 15.0 13.3 9.8 71 2.7 N 9 11 5 6 1022.6 1022.6 0.0
30/04:30am 15.1 12.7 9.9 71 2.7 N 13 15 7 8 1022.6 1022.6 0.0
30/04:00am 15.3 12.4 9.7 69 2.9 NNE 15 20 8 11 1022.7 1022.7 0.0
30/03:30am 14.7 13.2 9.1 69 2.9 N 7 11 4 6 1022.9 1022.9 0.0
30/03:00am 15.4 12.3 8.9 65 3.3 NNE 15 20 8 11 1023.0 1023.0 0.0
30/02:30am 15.4 11.2 8.2 62 3.6 NE 20 24 11 13 1023.3 1023.3 0.0
30/02:00am 15.5 13.4 8.3 62 3.6 N 9 15 5 8 1023.5 1023.5 0.0
30/01:30am 15.3 13.3 8.8 65 3.3 NNE 9 13 5 7 1023.7 1023.7 0.0
30/01:00am 15.4 12.2 8.4 63 3.5 NNE 15 20 8 11 1024.0 1024.0 0.0
30/12:30am 15.8 12.2 8.5 62 3.7 NE 17 22 9 12 1024.4 1024.4 0.0
30/12:00am 15.6 12.5 8.8 64 3.5 NNE 15 20 8 11 1024.4 1024.4 0.0
 
Date/Time
CST
Temp
°C
App
Temp
°C
Dew
Point
Rel
Hum
%
Delta-T
°C
Wind Press
QNH
hPa
Press
MSL
hPa
Rain
since 9 am
mm
Dir
 
Spd
km/h
Gust
km/h
Spd
kts
Gust
kts
29/11:30pm 15.6 13.0 9.3 66 3.2 NNE 13 17 7 9 1024.6 1024.6 0.0
29/11:00pm 15.5 12.9 9.2 66 3.2 NNE 13 20 7 11 1024.7 1024.7 0.0
29/10:30pm 16.0 13.8 9.2 64 3.5 NNE 11 15 6 8 1025.0 1025.0 0.0
29/10:00pm 16.4 14.4 8.6 60 4.0 NNE 9 17 5 9 1025.2 1025.2 0.0
29/09:30pm 15.9 13.9 10.0 68 3.1 NNE 11 17 6 9 1025.3 1025.3 0.0
29/09:00pm 15.6 14.0 10.2 70 2.8 NNE 9 13 5 7 1025.4 1025.4 0.0
29/08:30pm 14.8 13.3 10.4 75 2.3 N 9 11 5 6 1025.4 1025.4 0.0
29/08:00pm 14.6 13.8 11.7 83 1.6 N 7 9 4 5 1025.5 1025.5 0.0
29/07:30pm 15.0 14.0 11.0 77 2.1 N 7 7 4 4 1025.4 1025.4 0.0
29/07:00pm 15.2 14.3 10.6 74 2.4 N 6 7 3 4 1025.3 1025.3 0.0
29/06:30pm 14.8 13.4 9.6 71 2.7 N 7 9 4 5 1025.2 1025.2 0.0
29/06:00pm 15.6 14.1 8.4 62 3.6 N 6 7 3 4 1025.1 1025.1 0.0
29/05:30pm 16.2 14.7 8.4 60 4.0 N 6 7 3 4 1025.1 1025.1 0.0
29/05:00pm 16.5 15.1 9.0 61 3.9 N 6 6 3 3 1025.1 1025.1 0.0
29/04:30pm 17.3 15.9 9.0 58 4.3 N 6 7 3 4 1025.3 1025.3 0.0
29/04:00pm 17.8 16.1 8.4 54 4.8 N 7 7 4 4 1025.3 1025.3 0.0
29/03:30pm 18.1 16.2 8.9 55 4.8 N 9 11 5 6 1025.4 1025.4 0.0
29/03:00pm 18.5 15.9 9.3 55 4.8 N 13 15 7 8 1025.6 1025.6 0.0
29/02:30pm 19.9 15.9 9.2 50 5.6 NNW 20 24 11 13 1025.7 1025.7 0.0
29/02:00pm 19.8 14.5 8.5 48 5.9 NNW 26 30 14 16 1025.7 1025.7 0.0
29/01:30pm 20.3 13.5 7.0 42 6.7 NNW 32 37 17 20 1025.9 1025.9 0.0
29/01:00pm 20.1 12.8 7.1 43 6.6 NNW 35 43 19 23 1026.0 1026.0 0.0
29/12:30pm 20.2 13.2 6.9 42 6.7 NNW 33 43 18 23 1026.6 1026.6 0.0
29/12:00pm 20.2 13.4 7.9 45 6.3 NNW 33 39 18 21 1027.1 1027.1 0.0
29/11:30am 19.9 14.1 7.9 46 6.2 NNW 28 35 15 19 1027.5 1027.5 0.0
29/11:00am 19.2 13.3 7.6 47 5.9 NNW 28 35 15 19 1027.8 1027.8 0.0
29/10:30am 18.9 14.8 8.0 49 5.6 NNW 19 28 10 15 1028.0 1028.0 0.0
29/10:00am 19.3 16.1 8.3 49 5.7 NNW 15 22 8 12 1028.1 1028.1 0.0
29/09:30am 19.3 16.7 9.2 52 5.3 N 13 17 7 9 1028.1 1028.1 0.0
29/09:00am 18.7 16.7 10.0 57 4.6 NNW 11 13 6 7 1028.2 1028.2 0.0
29/08:30am 16.9 14.9 10.1 64 3.6 NNW 11 13 6 7 1028.2 1028.2 0.0
29/08:00am 15.1 13.7 10.9 76 2.2 N 9 11 5 6 1028.1 1028.1 0.0
29/07:30am 14.1 12.6 10.7 80 1.8 N 9 9 5 5 1027.9 1027.9 0.0
29/07:00am 13.8 12.3 10.4 80 1.8 N 9 11 5 6 1027.7 1027.7 0.0
29/06:30am 14.0 11.6 10.2 78 2.0 N 13 15 7 8 1027.5 1027.5 0.0
29/06:00am 13.9 11.5 9.9 77 2.1 N 13 17 7 9 1027.2 1027.2 0.0
29/05:30am 13.9 11.5 10.1 78 2.0 N 13 19 7 10 1027.1 1027.1 0.0
29/05:00am 13.7 11.3 9.9 78 2.0 N 13 19 7 10 1027.1 1027.1 0.0
29/04:30am 13.7 11.8 10.5 81 1.7 NNE 11 15 6 8 1027.0 1027.0 0.0
29/04:00am 13.4 12.1 11.1 86 1.2 NNE 9 11 5 6 1027.1 1027.1 0.0
29/03:30am 13.6 12.2 10.8 83 1.5 NNE 9 13 5 7 1027.3 1027.3 0.0
29/03:00am 14.0 12.5 10.4 79 1.9 ENE 9 13 5 7 1027.5 1027.5 0.0
29/02:30am 13.6 12.1 10.6 82 1.6 ENE 9 11 5 6 1027.4 1027.4 0.0
29/02:00am 14.3 13.2 9.9 75 2.3 ENE 6 7 3 4 1027.6 1027.6 0.0
29/01:30am 15.3 14.2 8.3 63 3.5 N 4 6 2 3 1027.7 1027.7 0.0
29/01:00am 14.5 12.1 8.7 68 2.9 N 11 13 6 7 1027.6 1027.6 0.0
29/12:30am 14.4 11.8 7.7 64 3.3 N 11 13 6 7 1027.6 1027.6 0.0
29/12:00am 14.2 12.4 7.9 66 3.1 N 7 9 4 5 1027.7 1027.7 0.0
 
Date/Time
CST
Temp
°C
App
Temp
°C
Dew
Point
Rel
Hum
%
Delta-T
°C
Wind Press
QNH
hPa
Press
MSL
hPa
Rain
since 9 am
mm
Dir
 
Spd
km/h
Gust
km/h
Spd
kts
Gust
kts
28/11:30pm 13.7 11.4 9.0 73 2.4 N 11 13 6 7 1027.7 1027.7 0.0
28/11:00pm 13.7 11.8 9.2 74 2.3 N 9 11 5 6 1027.9 1027.9 0.0
28/10:30pm 13.3 11.6 9.9 80 1.7 N 9 11 5 6 1028.1 1028.1 0.0
28/10:00pm 13.4 11.3 9.6 78 1.9 N 11 13 6 7 1028.3 1028.3 0.0
28/09:30pm 13.7 12.0 9.9 78 2.0 N 9 11 5 6 1028.3 1028.3 0.0
28/09:00pm 13.9 12.3 10.1 78 2.0 N 9 11 5 6 1028.3 1028.3 0.0
28/08:30pm 14.0 12.1 10.4 79 1.9 N 11 15 6 8 1028.3 1028.3 0.0
28/08:00pm 16.5 15.8 8.7 60 4.0 NNW 2 4 1 2 1028.2 1028.2 0.0
28/07:30pm 16.5 15.0 8.5 59 4.1 NW 6 9 3 5 1027.9 1027.9 0.0
28/07:00pm 17.3 15.6 8.4 56 4.6 SW 7 7 4 4 1027.8 1027.8 0.0
28/06:30pm 17.1 15.2 9.0 59 4.2 SW 9 11 5 6 1027.7 1027.7 0.0
28/06:00pm 17.0 14.7 8.9 59 4.2 SW 11 15 6 8 1027.7 1027.7 0.0
28/05:30pm 17.3 14.7 7.6 53 4.9 W 11 13 6 7 1027.6 1027.6 0.0
28/05:00pm 17.9 14.6 7.9 52 5.1 NW 15 20 8 11 1027.1 1027.1 0.0
28/04:30pm 18.2 12.7 7.6 50 5.4 NNW 26 33 14 18 1026.5 1026.5 0.0
28/04:00pm 18.4 12.1 7.5 49 5.5 NNW 30 33 16 18 1026.5 1026.5 0.0
28/03:30pm 18.8 13.0 7.9 49 5.6 NNW 28 35 15 19 1026.6 1026.6 0.0
28/03:00pm 19.0 12.9 8.4 50 5.5 NNW 30 35 16 19 1026.6 1026.6 0.0
28/02:30pm 18.8 13.1 8.2 50 5.4 NNW 28 35 15 19 1026.8 1026.8 0.0
28/02:00pm 18.6 12.5 8.3 51 5.3 NNW 30 35 16 19 1026.9 1026.9 0.0
28/01:30pm 18.7 13.1 8.9 53 5.1 NNW 28 35 15 19 1027.1 1027.1 0.0
28/01:00pm 19.1 13.9 9.0 52 5.3 NNW 26 35 14 19 1027.5 1027.5 0.0
28/12:30pm 18.9 14.2 9.4 54 5.0 NNW 24 32 13 17 1027.7 1027.7 0.0
28/12:00pm 18.3 14.6 11.4 64 3.7 N 22 24 12 13 1028.0 1028.0 0.0
28/11:30am 18.2 15.9 11.7 66 3.5 N 15 19 8 10 1028.5 1028.5 0.0
28/11:00am 17.6 15.3 11.9 69 3.1 N 15 17 8 9 1028.7 1028.7 0.0
28/10:30am 16.8 14.8 10.2 65 3.5 N 11 13 6 7 1028.9 1028.9 0.0
28/10:00am 18.0 16.6 10.9 63 3.8 NNW 9 11 5 6 1029.1 1029.1 0.0
28/09:30am 17.5 15.7 9.4 59 4.2 NNW 9 11 5 6 1029.0 1029.0 0.0
28/09:00am 16.4 13.9 9.6 64 3.5 NNW 13 15 7 8 1028.7 1028.7 0.0
28/08:30am 15.4 13.1 10.6 73 2.5 N 13 15 7 8 1028.4 1028.4 0.0
28/08:00am 14.1 12.9 10.3 78 2.0 N 7 7 4 4 1028.4 1028.4 0.0
28/07:30am 13.7 12.9 9.6 76 2.1 N 4 6 2 3 1028.3 1028.3 0.0
28/07:00am 13.5 12.9 9.0 74 2.3 N 2 4 1 2 1028.2 1028.2 0.0
28/06:30am 13.2 11.7 8.5 73 2.3 N 6 6 3 3 1027.8 1027.8 0.0
28/06:00am 12.7 11.2 9.3 80 1.7 N 7 9 4 5 1027.4 1027.4 0.0
28/05:30am 13.4 11.8 8.7 73 2.3 NNE 7 7 4 4 1027.3 1027.3 0.0
28/05:00am 13.1 10.9 8.0 71 2.5 NNE 9 13 5 7 1027.2 1027.2 0.0
28/04:30am 13.1 11.1 8.6 74 2.2 N 9 11 5 6 1027.1 1027.1 0.0
28/04:00am 13.3 11.3 8.6 73 2.4 NNE 9 13 5 7 1027.1 1027.1 0.0
28/03:30am 13.2 11.2 8.5 73 2.3 NNE 9 15 5 8 1027.2 1027.2 0.0
28/03:00am 13.0 11.2 9.6 80 1.7 NNE 9 11 5 6 1027.5 1027.5 0.0
28/02:30am 13.0 11.1 9.1 77 2.0 NNE 9 13 5 7 1027.7 1027.7 0.0
28/02:00am 12.9 11.1 9.5 80 1.7 NNE 9 13 5 7 1027.8 1027.8 0.0
28/01:30am 13.2 11.2 8.5 73 2.3 N 9 13 5 7 1028.0 1028.0 0.0
28/01:00am 12.6 10.7 9.1 79 1.8 N 9 11 5 6 1028.1 1028.1 0.0
28/12:30am 12.6 11.1 9.1 79 1.8 N 7 9 4 5 1028.3 1028.3 0.0
28/12:00am 12.4 10.5 9.2 81 1.6 N 9 11 5 6 1028.3 1028.3 0.0
 
Date/Time
CST
Temp
°C
App
Temp
°C
Dew
Point
Rel
Hum
%
Delta-T
°C
Wind Press
QNH
hPa
Press
MSL
hPa
Rain
since 9 am
mm
Dir
 
Spd
km/h
Gust
km/h
Spd
kts
Gust
kts
27/11:30pm 12.3 10.7 10.2 87 1.1 N 9 11 5 6 1028.3 1028.3 0.0
27/11:00pm 12.5 11.4 10.6 88 1.0 N 7 9 4 5 1028.4 1028.4 0.0
27/10:30pm 13.0 12.4 11.6 91 0.7 N 6 7 3 4 1028.3 1028.3 0.0
27/10:00pm 12.7 11.8 11.3 91 0.7 N 7 9 4 5 1028.3 1028.3 0.0
27/09:30pm 12.7 11.6 10.8 88 1.0 N 7 9 4 5 1028.3 1028.3 0.0
27/09:00pm 13.0 12.0 11.1 88 1.0 N 7 9 4 5 1028.3 1028.3 0.0
27/08:30pm 12.7 11.2 9.3 80 1.7 N 7 7 4 4 1028.1 1028.1 0.0
27/08:00pm 13.0 11.9 10.0 82 1.5 N 6 6 3 3 1027.9 1027.9 0.0
27/07:30pm 13.0 12.0 10.2 83 1.4 N 6 7 3 4 1027.7 1027.7 0.0
27/07:00pm 13.1 11.6 9.2 77 2.0 N 7 9 4 5 1027.2 1027.2 0.0
27/06:30pm 13.9 12.1 7.2 64 3.3 N 6 7 3 4 1027.0 1027.0 0.0
27/06:00pm 14.7 13.2 7.0 60 3.7 NW 4 6 2 3 1026.8 1026.8 0.0

Other Formats:

Comma delimited format used in spreadsheet applications
http://www.bom.gov.au/fwo/IDS60801/IDS60801.94822.axf

JavaScript Object Notation format (JSON) in row-major order
http://www.bom.gov.au/fwo/IDS60801/IDS60801.94822.json